createdAt,value
2023-03-26T00:01:15.571Z,8.65
2023-03-26T00:03:45.114Z,8.70
2023-03-26T00:06:16.858Z,8.59
2023-03-26T00:08:45.207Z,8.50
2023-03-26T00:11:14.014Z,8.70
2023-03-26T00:13:43.794Z,8.76
2023-03-26T00:16:13.824Z,9.02
2023-03-26T00:18:42.589Z,9.31
2023-03-26T00:21:12.776Z,9.40
2023-03-26T00:23:40.074Z,9.48
2023-03-26T00:26:10.574Z,9.42
2023-03-26T00:28:40.504Z,9.40
2023-03-26T00:31:11.998Z,9.44
2023-03-26T00:33:40.733Z,9.45
2023-03-26T00:36:14.820Z,9.46
2023-03-26T00:38:42.979Z,9.48
2023-03-26T00:41:17.651Z,9.62
2023-03-26T00:43:48.794Z,9.58
2023-03-26T00:46:17.630Z,9.67
2023-03-26T00:48:46.278Z,9.69
2023-03-26T00:51:17.771Z,9.82
2023-03-26T00:53:45.847Z,9.71
2023-03-26T00:56:13.592Z,9.70
2023-03-26T00:58:41.071Z,9.61
2023-03-26T01:01:14.146Z,9.63
2023-03-26T01:03:48.021Z,9.69
2023-03-26T01:06:32.844Z,9.82
2023-03-26T01:09:04.601Z,9.64
2023-03-26T01:11:32.886Z,9.79
2023-03-26T01:14:02.814Z,9.80
2023-03-26T01:16:39.602Z,9.65
2023-03-26T01:19:10.336Z,9.63
2023-03-26T01:21:38.776Z,9.66
2023-03-26T01:24:08.070Z,9.68
2023-03-26T01:26:54.075Z,9.76
2023-03-26T01:29:33.625Z,9.75
2023-03-26T01:32:03.492Z,9.75
2023-03-26T01:34:44.052Z,9.70
2023-03-26T01:37:20.959Z,9.56
2023-03-26T01:39:56.986Z,9.63
2023-03-26T01:42:49.034Z,9.46
2023-03-26T01:45:22.441Z,9.41
2023-03-26T01:47:49.843Z,9.49
2023-03-26T01:50:17.226Z,9.42
2023-03-26T01:52:44.476Z,9.40
2023-03-26T01:55:11.854Z,9.31
2023-03-26T01:57:43.971Z,9.14
2023-03-26T02:00:25.785Z,9.22
2023-03-26T02:02:59.231Z,9.22
2023-03-26T02:05:39.201Z,9.02
2023-03-26T02:08:35.975Z,9.07
2023-03-26T02:11:11.742Z,9.02
2023-03-26T02:13:40.053Z,9.01
2023-03-26T02:16:09.107Z,8.99
2023-03-26T02:18:36.809Z,8.98
2023-03-26T02:21:06.476Z,8.90
2023-03-26T02:23:35.984Z,8.90
2023-03-26T02:26:06.612Z,8.79
2023-03-26T02:28:35.102Z,8.86
2023-03-26T02:31:02.444Z,8.85
2023-03-26T02:33:31.104Z,8.78
2023-03-26T02:36:05.189Z,8.77
2023-03-26T02:38:35.677Z,8.77
2023-03-26T02:41:04.660Z,8.72
2023-03-26T02:43:46.561Z,8.76
2023-03-26T02:46:17.110Z,8.71
2023-03-26T02:49:10.732Z,8.74
2023-03-26T02:51:38.107Z,8.76
2023-03-26T02:54:16.933Z,8.71
2023-03-26T02:56:53.473Z,8.75
2023-03-26T02:59:30.433Z,8.69
2023-03-26T03:02:20.456Z,8.77
2023-03-26T03:04:48.075Z,8.72
2023-03-26T03:07:16.021Z,8.82
2023-03-26T03:09:43.318Z,8.75
2023-03-26T03:12:29.015Z,8.78
2023-03-26T03:14:56.309Z,8.80
2023-03-26T03:17:23.606Z,8.74
2023-03-26T03:19:51.008Z,8.65
2023-03-26T03:22:18.452Z,8.62
2023-03-26T03:24:47.552Z,8.46
2023-03-26T03:27:15.599Z,8.47
2023-03-26T03:29:48.222Z,8.44
2023-03-26T03:32:34.126Z,8.39
2023-03-26T03:35:04.987Z,8.42
2023-03-26T03:37:32.510Z,8.36
2023-03-26T03:40:00.181Z,8.32
2023-03-26T03:42:30.830Z,8.36
2023-03-26T03:45:02.138Z,8.29
2023-03-26T03:47:48.060Z,8.32
2023-03-26T04:04:24.824Z,8.11
2023-03-26T04:07:04.691Z,7.95
2023-03-26T04:09:47.103Z,7.99
2023-03-26T04:12:18.115Z,7.94
2023-03-26T04:14:52.244Z,7.94
2023-03-26T04:17:23.913Z,7.81
2023-03-26T04:19:55.066Z,7.79
2023-03-26T04:22:36.533Z,7.90
2023-03-26T04:25:07.667Z,7.83
2023-03-26T04:27:46.275Z,7.98
2023-03-26T04:30:21.655Z,8.02
2023-03-26T04:33:01.004Z,8.08
2023-03-26T04:47:51.196Z,8.40
2023-03-26T04:50:18.755Z,8.42
2023-03-26T04:52:46.292Z,8.45
2023-03-26T04:56:05.876Z,8.48
2023-03-26T04:58:51.882Z,8.44
2023-03-26T05:01:21.585Z,8.49
2023-03-26T05:03:49.058Z,8.51
2023-03-26T05:06:17.802Z,8.59
2023-03-26T05:08:45.314Z,8.59
2023-03-26T05:11:21.182Z,8.59
2023-03-26T05:13:48.480Z,8.74
2023-03-26T05:16:19.060Z,8.83
2023-03-26T05:18:54.791Z,8.81
2023-03-26T05:21:22.988Z,8.84
2023-03-26T05:23:50.316Z,8.91
2023-03-26T05:26:19.312Z,8.97
2023-03-26T05:28:46.634Z,8.93
2023-03-26T05:31:23.421Z,9.16
2023-03-26T05:33:55.101Z,9.25
2023-03-26T05:36:22.832Z,9.31
2023-03-26T05:39:01.168Z,9.36
2023-03-26T05:41:49.193Z,9.50
2023-03-26T05:44:17.228Z,9.48
2023-03-26T05:46:45.351Z,9.59
2023-03-26T05:49:20.250Z,9.66
2023-03-26T05:51:48.051Z,9.75
2023-03-26T05:54:35.576Z,9.96
2023-03-26T05:57:35.604Z,10.09
2023-03-26T06:00:21.894Z,10.06
2023-03-26T06:02:56.668Z,10.28
2023-03-26T06:05:27.188Z,10.29
2023-03-26T06:08:07.092Z,10.41
2023-03-26T06:10:38.884Z,10.50
2023-03-26T06:13:06.162Z,10.45
2023-03-26T06:15:36.336Z,10.47
2023-03-26T06:18:12.788Z,10.63
2023-03-26T06:20:48.716Z,10.69
2023-03-26T06:23:25.152Z,10.77
2023-03-26T06:26:01.363Z,10.77
2023-03-26T06:28:46.975Z,10.76
2023-03-26T06:31:49.494Z,10.88
2023-03-26T06:34:20.329Z,10.98
2023-03-26T06:36:48.899Z,11.02
2023-03-26T06:39:16.312Z,11.11
2023-03-26T06:41:55.543Z,11.20
2023-03-26T06:44:55.024Z,11.40
2023-03-26T06:47:54.102Z,11.50
2023-03-26T06:50:41.593Z,11.46
2023-03-26T06:53:29.083Z,11.51
2023-03-26T06:56:25.564Z,11.68
2023-03-26T06:59:04.983Z,11.73
2023-03-26T07:01:53.574Z,11.66
2023-03-26T07:04:46.639Z,11.68
2023-03-26T07:07:32.471Z,11.71
2023-03-26T07:10:18.294Z,11.71
2023-03-26T07:13:11.167Z,11.57
2023-03-26T07:15:56.947Z,11.77
2023-03-26T07:18:27.017Z,11.82
2023-03-26T07:20:55.270Z,11.81
2023-03-26T07:23:24.345Z,11.95
2023-03-26T07:25:58.351Z,12.13
2023-03-26T07:29:03.718Z,11.87
2023-03-26T07:32:23.641Z,12.13
2023-03-26T07:35:10.974Z,12.27
2023-03-26T07:38:28.083Z,12.23
2023-03-26T07:41:27.853Z,12.31
2023-03-26T07:44:56.824Z,12.30
2023-03-26T07:47:42.858Z,12.40
2023-03-26T07:50:19.126Z,12.37
2023-03-26T07:53:02.273Z,12.63
2023-03-26T07:55:52.843Z,12.56
2023-03-26T07:59:08.192Z,12.56
2023-03-26T08:02:12.994Z,12.49
2023-03-26T08:05:10.430Z,12.55
2023-03-26T08:08:13.842Z,12.45
2023-03-26T08:11:12.753Z,12.60
2023-03-26T08:13:58.225Z,12.96
2023-03-26T08:16:35.663Z,12.96
2023-03-26T08:19:10.870Z,12.79
2023-03-26T08:21:50.054Z,13.00
2023-03-26T08:24:37.435Z,13.05
2023-03-26T08:27:21.456Z,13.08
2023-03-26T08:30:14.939Z,13.21
2023-03-26T08:32:42.492Z,13.13
2023-03-26T08:35:12.322Z,13.13
2023-03-26T08:37:41.302Z,13.27
2023-03-26T08:40:11.420Z,13.36
2023-03-26T08:43:00.497Z,13.46
2023-03-26T08:45:40.850Z,13.86
2023-03-26T08:48:32.981Z,13.96
2023-03-26T08:51:12.908Z,13.97
2023-03-26T08:54:08.243Z,13.99
2023-03-26T08:56:53.657Z,13.84
2023-03-26T08:59:32.694Z,13.91
2023-03-26T09:02:09.330Z,14.13
2023-03-26T09:05:14.162Z,13.90
2023-03-26T09:08:10.889Z,13.72
2023-03-26T09:10:52.090Z,14.06
2023-03-26T09:13:25.742Z,14.45
2023-03-26T09:16:18.818Z,14.37
2023-03-26T09:18:55.124Z,13.76
2023-03-26T09:21:47.522Z,13.85
2023-03-26T09:24:52.195Z,13.77
2023-03-26T09:28:01.826Z,13.56
2023-03-26T09:30:47.825Z,13.60
2023-03-26T09:33:28.036Z,13.64
2023-03-26T09:36:20.579Z,13.77
2023-03-26T09:39:03.386Z,14.03
2023-03-26T09:41:33.044Z,13.70
2023-03-26T09:44:28.100Z,13.78
2023-03-26T09:47:24.325Z,14.09
2023-03-26T09:50:16.374Z,14.11
2023-03-26T09:53:08.807Z,14.20
2023-03-26T09:55:48.963Z,13.94
2023-03-26T09:58:41.418Z,14.04
2023-03-26T10:01:25.153Z,13.98
2023-03-26T10:04:20.873Z,14.16
2023-03-26T10:07:01.365Z,14.37
2023-03-26T10:10:02.140Z,14.86
2023-03-26T10:12:33.445Z,14.70
2023-03-26T10:15:48.893Z,14.72
2023-03-26T10:18:27.841Z,14.49
2023-03-26T10:21:08.347Z,14.61
2023-03-26T10:23:42.089Z,14.56
2023-03-26T10:26:16.020Z,14.62
2023-03-26T10:28:59.532Z,14.50
2023-03-26T10:32:03.650Z,15.17
2023-03-26T10:34:52.912Z,15.32
2023-03-26T10:37:36.592Z,15.76
2023-03-26T10:40:10.228Z,15.60
2023-03-26T10:42:54.831Z,15.67
2023-03-26T10:45:43.799Z,15.32
2023-03-26T10:48:29.459Z,15.16
2023-03-26T10:51:24.662Z,14.96
2023-03-26T10:53:58.752Z,14.90
2023-03-26T10:56:44.989Z,14.76
2023-03-26T10:59:13.369Z,14.86
2023-03-26T11:01:55.759Z,14.85
2023-03-26T11:04:35.790Z,14.77
2023-03-26T11:07:24.709Z,14.52
2023-03-26T11:10:01.643Z,14.70
2023-03-26T11:12:51.640Z,14.97
2023-03-26T11:15:31.236Z,14.89
2023-03-26T11:18:19.163Z,14.66
2023-03-26T11:21:21.076Z,14.76
2023-03-26T11:24:06.161Z,14.81
2023-03-26T11:26:42.472Z,14.91
2023-03-26T11:29:32.813Z,15.02
2023-03-26T11:32:11.801Z,15.05
2023-03-26T11:34:47.030Z,14.86
2023-03-26T11:37:26.717Z,14.87
2023-03-26T11:39:56.483Z,15.01
2023-03-26T11:42:24.552Z,14.85
2023-03-26T11:44:57.296Z,14.85
2023-03-26T11:47:52.923Z,14.97
2023-03-26T11:50:30.591Z,14.97
2023-03-26T11:52:58.554Z,15.04
2023-03-26T11:55:25.864Z,14.58
2023-03-26T11:57:54.294Z,15.03
2023-03-26T12:00:26.125Z,15.26
2023-03-26T12:02:57.040Z,15.04
2023-03-26T12:05:31.449Z,14.90
2023-03-26T12:07:59.961Z,15.38
2023-03-26T12:10:38.315Z,15.08
2023-03-26T12:13:29.973Z,15.38
2023-03-26T12:15:58.693Z,15.37
2023-03-26T12:18:27.523Z,15.39
2023-03-26T12:21:11.128Z,15.61
2023-03-26T12:23:43.628Z,15.47
2023-03-26T12:26:16.281Z,15.50
2023-03-26T12:28:50.205Z,15.09
2023-03-26T12:31:20.617Z,14.99
2023-03-26T12:34:05.061Z,15.03
2023-03-26T12:36:33.390Z,15.46
2023-03-26T12:39:16.124Z,15.33
2023-03-26T12:43:40.479Z,15.40
2023-03-26T12:44:59.253Z,15.15
2023-03-26T12:48:01.069Z,14.90
2023-03-26T12:50:34.708Z,14.93
2023-03-26T12:53:27.165Z,14.81
2023-03-26T12:56:22.019Z,14.73
2023-03-26T12:58:51.287Z,14.89
2023-03-26T13:01:21.862Z,14.67
2023-03-26T13:04:10.884Z,14.80
2023-03-26T13:06:59.816Z,14.86
2023-03-26T13:09:44.021Z,14.86
2023-03-26T13:12:17.389Z,14.61
2023-03-26T13:15:12.472Z,15.10
2023-03-26T13:17:49.264Z,14.94
2023-03-26T13:20:18.876Z,14.84
2023-03-26T13:23:02.483Z,14.80
2023-03-26T13:25:36.586Z,14.96
2023-03-26T13:28:18.570Z,14.90
2023-03-26T13:31:13.558Z,14.93
2023-03-26T13:34:18.632Z,15.13
2023-03-26T13:37:07.643Z,15.55
2023-03-26T13:39:50.605Z,15.72
2023-03-26T13:42:20.635Z,15.62
2023-03-26T13:45:09.981Z,15.99
2023-03-26T13:47:39.420Z,15.86
2023-03-26T13:50:10.018Z,15.92
2023-03-26T13:53:05.684Z,16.08
2023-03-26T13:55:37.530Z,15.81
2023-03-26T13:58:11.039Z,15.45
2023-03-26T14:01:07.371Z,15.41
2023-03-26T14:03:58.695Z,15.33
2023-03-26T14:06:48.909Z,15.30
2023-03-26T14:10:01.978Z,15.33
2023-03-26T14:12:38.114Z,15.37
2023-03-26T14:15:07.080Z,15.31
2023-03-26T14:18:03.773Z,15.52
2023-03-26T14:20:56.391Z,15.70
2023-03-26T14:23:49.707Z,15.57
2023-03-26T14:26:26.543Z,17.02
2023-03-26T14:29:23.816Z,19.96
2023-03-26T14:32:09.459Z,19.46
2023-03-26T14:35:00.560Z,19.15
2023-03-26T14:37:46.487Z,20.06
2023-03-26T14:40:14.987Z,18.85
2023-03-26T14:42:56.502Z,17.63
2023-03-26T14:45:53.089Z,17.00
2023-03-26T14:48:34.390Z,19.90
2023-03-26T14:51:10.259Z,20.72
2023-03-26T14:53:40.218Z,20.05
2023-03-26T14:56:36.658Z,20.28
2023-03-26T14:59:30.096Z,21.77
2023-03-26T15:02:15.878Z,20.33
2023-03-26T15:04:48.317Z,21.65
2023-03-26T15:07:22.251Z,22.03
2023-03-26T15:10:23.432Z,22.00
2023-03-26T15:13:05.816Z,18.90
2023-03-26T15:16:11.672Z,17.35
2023-03-26T15:19:09.527Z,16.86
2023-03-26T15:22:31.107Z,16.46
2023-03-26T15:25:25.047Z,15.95
2023-03-26T15:28:15.314Z,15.72
2023-03-26T15:31:18.874Z,15.53
2023-03-26T15:34:04.358Z,15.62
2023-03-26T15:36:53.245Z,15.47
2023-03-26T15:39:58.551Z,15.89
2023-03-26T15:42:31.505Z,17.38
2023-03-26T15:45:16.956Z,17.81
2023-03-26T15:47:54.087Z,17.20
2023-03-26T15:50:27.142Z,16.84
2023-03-26T15:52:54.395Z,16.40
2023-03-26T15:55:27.797Z,15.87
2023-03-26T15:57:56.976Z,15.35
2023-03-26T16:00:25.525Z,15.23
2023-03-26T16:03:11.241Z,15.06
2023-03-26T16:05:56.742Z,14.94
2023-03-26T16:08:53.055Z,14.93
2023-03-26T16:11:46.219Z,14.85
2023-03-26T16:14:23.352Z,14.60
2023-03-26T16:17:00.297Z,14.53
2023-03-26T16:20:03.538Z,14.26
2023-03-26T16:23:00.738Z,14.32
2023-03-26T16:25:35.267Z,14.17
2023-03-26T16:28:11.583Z,14.01
2023-03-26T16:30:39.184Z,13.95
2023-03-26T16:33:14.061Z,13.62
2023-03-26T16:36:04.395Z,13.58
2023-03-26T16:38:50.346Z,13.28
2023-03-26T16:41:19.435Z,13.08
2023-03-26T16:44:25.410Z,12.82
2023-03-26T16:46:58.461Z,12.62
2023-03-26T16:49:43.709Z,12.56
2023-03-26T16:52:42.660Z,12.65
2023-03-26T16:55:37.873Z,12.80
2023-03-26T16:58:28.827Z,12.83
2023-03-26T17:01:15.931Z,12.77
2023-03-26T17:03:49.156Z,12.94
2023-03-26T17:06:35.914Z,12.89
2023-03-26T17:09:26.227Z,12.80
2023-03-26T17:12:24.529Z,12.82
2023-03-26T17:15:05.934Z,12.79
2023-03-26T17:17:36.955Z,12.73
2023-03-26T17:20:23.106Z,12.68
2023-03-26T17:23:29.906Z,12.65
2023-03-26T17:26:11.888Z,12.65
2023-03-26T17:28:50.478Z,12.54
2023-03-26T17:31:35.874Z,12.50
2023-03-26T17:34:40.114Z,12.43
2023-03-26T17:37:23.562Z,12.26
2023-03-26T17:39:51.188Z,12.27
2023-03-26T17:42:37.623Z,12.19
2023-03-26T17:45:25.196Z,12.23
2023-03-26T17:48:17.034Z,12.19
2023-03-26T17:50:58.411Z,12.35
2023-03-26T17:53:31.090Z,12.30
2023-03-26T17:56:03.336Z,12.14
2023-03-26T17:58:47.976Z,12.29
2023-03-26T18:01:37.257Z,12.31
2023-03-26T18:04:07.005Z,12.42
2023-03-26T18:07:08.250Z,12.38
2023-03-26T18:09:52.002Z,12.37
2023-03-26T18:12:53.789Z,12.41
2023-03-26T18:15:31.250Z,12.42
2023-03-26T18:18:09.660Z,12.37
2023-03-26T18:20:37.665Z,12.32
2023-03-26T18:23:23.400Z,12.29
2023-03-26T18:25:59.566Z,12.24
2023-03-26T18:28:31.439Z,12.25
2023-03-26T18:31:08.381Z,12.06
2023-03-26T18:33:43.845Z,12.19
2023-03-26T18:36:11.713Z,12.16
2023-03-26T18:38:41.181Z,12.14
2023-03-26T18:41:16.922Z,12.11
2023-03-26T18:43:44.832Z,12.12
2023-03-26T18:46:13.527Z,12.09
2023-03-26T18:48:40.952Z,12.01
2023-03-26T18:51:08.267Z,12.04
2023-03-26T18:53:37.955Z,11.94
2023-03-26T18:56:19.417Z,11.88
2023-03-26T18:58:50.610Z,11.93
2023-03-26T19:01:25.386Z,11.83
2023-03-26T19:03:53.661Z,11.84
2023-03-26T19:06:21.088Z,11.78
2023-03-26T19:08:48.480Z,11.64
2023-03-26T19:11:16.719Z,11.69
2023-03-26T19:13:44.262Z,11.71
2023-03-26T19:16:22.231Z,11.57
2023-03-26T19:18:49.708Z,11.54
2023-03-26T19:21:18.124Z,11.53
2023-03-26T19:23:46.700Z,11.39
2023-03-26T19:26:13.982Z,11.31
2023-03-26T19:28:53.397Z,11.13
2023-03-26T19:31:34.638Z,11.07
2023-03-26T19:34:15.713Z,10.99
2023-03-26T19:36:58.226Z,11.02
2023-03-26T19:39:38.714Z,10.92
2023-03-26T19:42:06.560Z,10.93
2023-03-26T19:44:33.856Z,10.82
2023-03-26T19:47:26.833Z,10.86
2023-03-26T19:50:01.900Z,10.86
2023-03-26T19:52:34.060Z,10.74
2023-03-26T19:55:10.174Z,10.76
2023-03-26T19:57:38.019Z,10.88
2023-03-26T20:00:14.326Z,10.86
2023-03-26T20:02:42.455Z,10.85
2023-03-26T20:05:19.501Z,10.83
2023-03-26T20:07:47.330Z,10.83
2023-03-26T20:10:14.660Z,10.81
2023-03-26T20:12:42.046Z,10.72
2023-03-26T20:15:31.074Z,10.76
2023-03-26T20:17:58.917Z,10.72
2023-03-26T20:20:27.557Z,10.65
2023-03-26T20:22:54.897Z,10.64
2023-03-26T20:25:33.213Z,10.61
2023-03-26T20:28:00.579Z,10.59
2023-03-26T20:30:37.345Z,10.59
2023-03-26T20:33:12.849Z,10.54
2023-03-26T20:35:42.835Z,10.56
2023-03-26T20:38:10.351Z,10.46
2023-03-26T20:40:38.445Z,10.41
2023-03-26T20:43:11.782Z,10.48
2023-03-26T20:45:39.061Z,10.39
2023-03-26T20:48:07.210Z,10.32
2023-03-26T20:50:35.964Z,10.37
2023-03-26T20:53:06.485Z,10.35
2023-03-26T20:55:33.699Z,10.37
2023-03-26T20:58:01.134Z,10.32
2023-03-26T21:00:28.700Z,10.26
2023-03-26T21:02:56.945Z,10.31
2023-03-26T21:05:25.775Z,10.29
2023-03-26T21:08:00.111Z,10.25
2023-03-26T21:10:29.619Z,10.16
2023-03-26T21:13:00.239Z,10.15
2023-03-26T21:15:27.888Z,10.11
2023-03-26T21:17:55.832Z,10.03
2023-03-26T21:20:24.562Z,9.97
2023-03-26T21:23:13.197Z,9.91
2023-03-26T21:26:28.292Z,9.80
2023-03-26T21:28:55.628Z,9.88
2023-03-26T21:31:24.170Z,9.88
2023-03-26T21:33:51.912Z,9.85
2023-03-26T21:36:23.042Z,9.92
2023-03-26T21:38:50.682Z,9.88
2023-03-26T21:41:28.872Z,9.90
2023-03-26T21:43:56.121Z,9.85
2023-03-26T21:46:24.682Z,9.74
2023-03-26T21:48:52.157Z,9.76
2023-03-26T21:51:20.896Z,9.79
2023-03-26T21:53:48.974Z,9.80
2023-03-26T21:56:25.588Z,9.91
2023-03-26T21:59:20.501Z,10.01
2023-03-26T22:02:12.599Z,10.17
2023-03-26T22:04:47.309Z,10.23
2023-03-26T22:07:19.918Z,10.59
2023-03-26T22:09:47.481Z,10.76
2023-03-26T22:12:14.788Z,10.92
2023-03-26T22:14:42.410Z,11.00
2023-03-26T22:17:09.689Z,11.04
2023-03-26T22:19:37.174Z,11.12
2023-03-26T22:22:05.327Z,11.13
2023-03-26T22:24:32.919Z,11.11
2023-03-26T22:27:00.158Z,11.19
2023-03-26T22:29:27.483Z,11.15
2023-03-26T22:31:54.728Z,11.23
2023-03-26T22:34:23.180Z,11.25
2023-03-26T22:36:50.506Z,11.31
2023-03-26T22:39:18.340Z,11.44
2023-03-26T22:41:45.597Z,11.34
2023-03-26T22:44:19.739Z,11.44
2023-03-26T22:46:51.464Z,11.41
2023-03-26T22:49:19.122Z,11.40
2023-03-26T22:51:46.788Z,11.49
2023-03-26T22:54:14.581Z,11.43
2023-03-26T22:56:41.971Z,11.46
2023-03-26T22:59:09.397Z,11.44
2023-03-26T23:01:37.433Z,11.41
2023-03-26T23:04:04.807Z,11.40
2023-03-26T23:06:32.230Z,11.44
2023-03-26T23:09:00.078Z,11.41
2023-03-26T23:11:29.621Z,11.41
2023-03-26T23:13:57.036Z,11.39
2023-03-26T23:16:24.388Z,11.34
2023-03-26T23:18:51.694Z,11.42
2023-03-26T23:21:22.139Z,11.40
2023-03-26T23:23:51.673Z,11.37
2023-03-26T23:26:19.077Z,11.35
2023-03-26T23:28:46.597Z,11.32
2023-03-26T23:31:14.174Z,11.33
2023-03-26T23:33:46.595Z,11.27
2023-03-26T23:36:17.598Z,11.25
2023-03-26T23:38:48.228Z,11.24
2023-03-26T23:41:17.137Z,11.30
2023-03-26T23:43:53.468Z,11.19
2023-03-26T23:46:23.594Z,11.16
2023-03-26T23:48:51.523Z,11.13
2023-03-26T23:51:20.215Z,11.13
2023-03-26T23:53:47.730Z,11.06
2023-03-26T23:56:15.457Z,10.99
2023-03-26T23:58:43.013Z,10.95
